Accueil
METAR-TAF:

METAR-TAF

Aéroports :

Base aérienne 120 Cazaux

Cazaux, France

latitude: 44-32N, longitude: 001-08W, altitude: 25 m

Observation

Le bulletin a été fait il y a 16 minutes, à 14:30 UTC
Vent 7 kt de nord-est, variant entre nord et est
Température 8°C
Humidité 57%
Pression 1032 hPa
Visibilité 10 km ou plus

METAR: LFBC 221430Z AUTO 04007KT 010V090 9999 // NSC 08/M00 Q1032

Heure: 15:46 (14:46 UTC)

Prévision

Le bulletin a été fait il y a 46 minutes, à 14:00 UTC
Prévision valable du 21 à 15 UTC au 22 à 15 UTC
Vent 10 kt de est/nord-est
Visibilité 10 km ou plus
Quelques nuages à une hauteur de 3000 ft
Temporairement
du 22 à 04 UTC au 22 à 07 UTC
Visibilité: 3000 m
brume

TAF: LFBC 211400Z 2115/2215 06010KT 9999 FEW030 TEMPO 2204/2207 3000 BR

Observations et prévisions météorologiques de plus de 4000 aéroports (messages METAR et TAF).

Les stations disponibles sont représentées par des disques jaunes et rouges sur la carte.

Passer la souris dessus pour voir le nom de la station.

Cliquer dessus pour voir les observations et prévisions météorologiques.

Pour changer de carte: cliquez sur les boutons verts avec une croix noire pour zoomer, sur le bouton vert avec un tiret pour effectuer un zoom arrière, ou sur les flèches vertes pour les cartes adjacentes.


METAR-TAF: